Terminal Aerodrome Forecast
Issued by NWS

Home | Current Version | Previous Version | Text Only | Print | Product List | Glossary On
Versions: 1 2 3 4 5 6 7 8 9 10 11 12
000
FTPA31 PHFO 231120
TAFHJR
TAF
PHJR 231120Z 2312/2412 VRB03KT P6SM FEW040
     FM232100 10008KT P6SM FEW025 BKN045
     FM240100 12006KT P6SM VCSH SCT025 BKN040=

USA.gov is the U.S. government's official web portal to all federal, state and local government web resources and services.